Time;durP1;ratioP1;P1;durP2;ratioP2;P2;SDS_P1;SDS_P2;PMS_P1;PMS_P2;Temp;Humidity;BMP_temperature;BMP_pressure;BME280_temperature;BME280_humidity;BME280_pressure;Samples;Min_cycle;Max_cycle;Signal;HPM_P1;HPM_P2
2022/05/27 00:00:17;;;;;;;6.80;4.35;;;16.20;78.30;;;;;;2239169;60;21076;-73
2022/05/27 00:02:45;;;;;;;9.73;5.45;;;16.30;78.10;;;;;;2239407;60;21076;-73
2022/05/27 00:05:13;;;;;;;12.70;5.22;;;16.20;78.10;;;;;;2239159;60;21207;-74
2022/05/27 00:07:40;;;;;;;7.95;4.93;;;16.20;78.50;;;;;;2239082;60;21123;-74
2022/05/27 00:10:11;;;;;;;11.75;5.05;;;16.20;78.20;;;;;;2239245;60;21570;-74
2022/05/27 00:12:39;;;;;;;10.23;5.28;;;16.20;78.40;;;;;;2239467;60;21123;-74
2022/05/27 00:15:08;;;;;;;12.40;4.85;;;16.20;77.70;;;;;;2239176;60;21147;-74
2022/05/27 00:17:35;;;;;;;11.98;5.82;;;16.20;77.80;;;;;;2238859;60;21088;-76
2022/05/27 00:20:04;;;;;;;10.95;4.90;;;16.20;78.00;;;;;;2239142;60;21071;-74
2022/05/27 00:22:32;;;;;;;12.13;4.97;;;16.20;78.00;;;;;;2239251;60;21705;-74
2022/05/27 00:24:59;;;;;;;10.23;5.50;;;16.20;77.40;;;;;;2462984;56;21128;-74
2022/05/27 00:27:26;;;;;;;10.27;5.65;;;16.20;77.10;;;;;;2238816;60;21662;-74
2022/05/27 00:29:53;;;;;;;12.35;5.80;;;16.20;77.20;;;;;;2239081;60;21136;-74
2022/05/27 00:32:21;;;;;;;10.05;4.62;;;16.20;77.40;;;;;;2239243;60;21143;-74
2022/05/27 00:34:48;;;;;;;8.77;5.25;;;16.20;77.40;;;;;;2239417;60;21175;-74
2022/05/27 00:37:16;;;;;;;12.10;4.75;;;16.20;77.20;;;;;;2238725;60;21141;-74
2022/05/27 00:39:43;;;;;;;11.45;6.22;;;16.20;77.10;;;;;;2238998;60;21104;-73
2022/05/27 00:42:10;;;;;;;10.25;5.50;;;16.10;77.80;;;;;;2239150;60;21140;-74
2022/05/27 00:44:38;;;;;;;9.77;5.00;;;16.20;78.00;;;;;;2239221;60;21084;-73
2022/05/27 00:47:09;;;;;;;11.73;5.68;;;16.20;77.60;;;;;;2238895;60;21087;-74
2022/05/27 00:49:49;;;;;;;33.60;6.90;;;16.20;78.10;;;;;;2239195;60;21073;-74
2022/05/27 00:52:19;;;;;;;11.95;4.87;;;16.20;78.20;;;;;;2239295;60;21076;-74
2022/05/27 00:54:46;;;;;;;8.93;4.95;;;16.20;77.50;;;;;;2239031;60;21226;-74
2022/05/27 00:57:16;;;;;;;9.23;4.43;;;16.20;77.60;;;;;;2238627;60;21062;-74
2022/05/27 00:59:49;;;;;;;14.48;5.37;;;16.20;77.00;;;;;;2239318;60;21489;-74
2022/05/27 01:02:17;;;;;;;16.20;4.55;;;16.20;77.70;;;;;;2239228;60;21064;-74
2022/05/27 01:04:46;;;;;;;12.40;3.90;;;16.20;77.20;;;;;;2463490;56;21136;-74
2022/05/27 01:07:14;;;;;;;10.70;4.43;;;16.10;77.80;;;;;;2238810;60;21151;-74
2022/05/27 01:09:43;;;;;;;11.73;4.40;;;16.00;77.70;;;;;;2239346;60;21076;-73
2022/05/27 01:12:32;;;;;;;16.33;3.78;;;16.00;77.30;;;;;;2239608;60;21137;-74
2022/05/27 01:15:15;;;;;;;9.93;3.58;;;15.90;77.30;;;;;;2239215;60;21073;-74
2022/05/27 01:17:54;;;;;;;15.07;3.90;;;15.90;77.00;;;;;;2239759;60;21179;-74
2022/05/27 01:20:32;;;;;;;12.88;3.80;;;15.90;77.10;;;;;;2239397;60;21056;-73
2022/05/27 01:23:41;;;;;;;20.67;4.50;;;15.90;76.90;;;;;;2239367;60;21571;-74
2022/05/27 01:26:46;;;;;;;12.73;3.55;;;15.80;76.90;;;;;;2238581;60;21143;-74
2022/05/27 01:29:42;;;;;;;16.50;3.55;;;15.80;76.80;;;;;;2239212;60;21080;-73
2022/05/27 01:32:14;;;;;;;16.27;3.50;;;15.70;77.30;;;;;;2238865;60;21060;-73
2022/05/27 01:34:52;;;;;;;22.25;3.80;;;15.60;76.80;;;;;;2239280;60;21124;-74
2022/05/27 01:37:28;;;;;;;13.80;3.35;;;15.60;76.90;;;;;;2239130;60;21112;-74
2022/05/27 01:40:05;;;;;;;17.58;5.12;;;15.60;76.60;;;;;;2239579;60;21093;-74
2022/05/27 01:42:37;;;;;;;14.20;3.72;;;15.60;76.70;;;;;;2239515;60;21151;-74
2022/05/27 01:45:09;;;;;;;16.27;3.87;;;15.50;76.60;;;;;;2238962;60;21155;-74
2022/05/27 01:47:41;;;;;;;11.15;3.20;;;15.60;76.80;;;;;;2237039;60;21080;-74
2022/05/27 01:50:14;;;;;;;16.80;4.82;;;15.60;76.80;;;;;;2239179;60;21084;-73
2022/05/27 01:52:48;;;;;;;10.95;3.42;;;15.60;76.80;;;;;;2239669;60;21068;-74
2022/05/27 01:55:18;;;;;;;;;;;15.60;76.50;;;;;;2242638;60;21076;-74
2022/05/27 01:57:52;;;;;;;19.83;3.78;;;15.70;76.20;;;;;;2239271;60;20090;-73
2022/05/27 02:00:23;;;;;;;18.50;4.28;;;15.70;75.80;;;;;;2239529;60;21072;-74
2022/05/27 02:02:55;;;;;;;21.55;4.18;;;15.60;75.70;;;;;;2239205;60;21088;-74
2022/05/27 02:05:28;;;;;;;14.23;3.20;;;15.50;76.10;;;;;;2462992;56;21064;-74
2022/05/27 02:07:59;;;;;;;19.90;3.47;;;15.50;76.20;;;;;;2239517;60;21072;-74
2022/05/27 02:10:32;;;;;;;21.85;4.20;;;15.50;75.90;;;;;;2239180;60;21116;-74
2022/05/27 02:13:04;;;;;;;11.95;3.42;;;15.50;75.60;;;;;;2239579;60;21076;-74
2022/05/27 02:15:35;;;;;;;17.33;3.47;;;15.50;75.70;;;;;;2238993;60;21144;-74
2022/05/27 02:18:09;;;;;;;18.33;3.08;;;15.40;75.30;;;;;;2239503;60;21160;-74
2022/05/27 02:20:41;;;;;;;12.35;2.92;;;15.40;75.00;;;;;;2239240;60;21213;-74
2022/05/27 02:23:14;;;;;;;17.12;3.78;;;15.40;74.90;;;;;;2239567;60;21072;-74
2022/05/27 02:25:45;;;;;;;14.50;2.60;;;15.40;75.00;;;;;;2239089;60;21131;-74
2022/05/27 02:28:17;;;;;;;20.58;4.05;;;15.40;74.60;;;;;;2239484;60;21076;-74
2022/05/27 02:30:52;;;;;;;17.80;4.30;;;15.30;74.40;;;;;;2239279;60;21144;-74
2022/05/27 02:36:16;;;;;;;21.15;4.18;;;15.20;74.20;;;;;;2238922;60;21602;-74
2022/05/27 02:38:43;;;;;;;14.15;2.65;;;15.20;74.10;;;;;;2239281;60;21152;-74
2022/05/27 02:41:16;;;;;;;15.98;3.40;;;15.10;73.80;;;;;;2239415;60;21072;-74
2022/05/27 02:43:59;;;;;;;15.48;2.85;;;15.10;74.00;;;;;;2239549;60;21084;-74
2022/05/27 02:46:36;;;;;;;10.23;2.70;;;15.00;73.60;;;;;;2463171;56;21160;-74
2022/05/27 02:49:11;;;;;;;13.62;3.03;;;15.00;73.30;;;;;;2239425;60;21080;-74
2022/05/27 02:51:48;;;;;;;20.95;3.45;;;15.00;73.30;;;;;;2239316;60;21087;-74
2022/05/27 02:54:24;;;;;;;13.85;3.35;;;14.90;73.20;;;;;;2239249;60;21080;-74
2022/05/27 02:56:58;;;;;;;14.20;3.55;;;14.90;73.30;;;;;;2238631;60;21642;-74
2022/05/27 02:59:26;;;;;;;15.68;3.62;;;14.90;73.20;;;;;;2239303;60;21143;-74
2022/05/27 03:01:54;;;;;;;19.77;3.55;;;14.90;73.40;;;;;;2239746;60;21064;-74
2022/05/27 03:04:21;;;;;;;22.02;3.87;;;14.80;73.30;;;;;;2239335;60;21151;-74
2022/05/27 03:07:03;;;;;;;20.27;3.78;;;14.80;73.30;;;;;;2238930;60;21136;-74
2022/05/27 03:09:42;;;;;;;18.33;3.12;;;14.70;73.60;;;;;;2239488;60;21092;-74
2022/05/27 03:12:15;;;;;;;13.18;3.35;;;14.70;73.20;;;;;;2239320;60;21088;-74
2022/05/27 03:15:02;;;;;;;18.50;3.35;;;14.70;73.30;;;;;;2239394;60;21064;-74
2022/05/27 03:17:43;;;;;;;13.85;3.60;;;14.70;73.10;;;;;;2239091;60;21144;-74
2022/05/27 03:20:26;;;;;;;16.87;3.58;;;14.70;73.00;;;;;;2239349;60;21136;-74
2022/05/27 03:23:06;;;;;;;17.12;3.40;;;14.60;72.80;;;;;;2239704;60;21144;-75
2022/05/27 03:25:39;;;;;;;13.73;3.00;;;14.70;73.00;;;;;;2238819;60;21144;-74
2022/05/27 03:28:14;;;;;;;24.35;3.15;;;14.70;73.20;;;;;;2239219;60;21081;-74
2022/05/27 03:30:49;;;;;;;14.70;3.20;;;14.70;73.30;;;;;;2239174;60;21147;-74
2022/05/27 03:33:25;;;;;;;13.57;3.10;;;14.70;73.00;;;;;;2239064;60;21148;-74
2022/05/27 03:35:59;;;;;;;21.20;3.95;;;14.70;73.00;;;;;;2238974;60;21087;-74
2022/05/27 03:38:33;;;;;;;19.25;3.25;;;14.60;73.00;;;;;;2239135;60;21144;-74
2022/05/27 03:41:06;;;;;;;16.20;3.17;;;14.70;72.50;;;;;;2463500;56;21068;-74
2022/05/27 03:43:36;;;;;;;15.18;2.78;;;14.60;72.40;;;;;;2239221;60;21068;-74
2022/05/27 03:46:04;;;;;;;12.07;3.33;;;14.60;72.30;;;;;;2239096;60;21084;-74
2022/05/27 03:48:34;;;;;;;12.98;3.22;;;14.60;72.60;;;;;;2239229;60;21142;-74
2022/05/27 03:51:06;;;;;;;12.20;2.83;;;14.50;72.70;;;;;;2239504;60;21153;-74
2022/05/27 03:56:19;;;;;;;16.50;3.78;;;14.50;72.20;;;;;;2376661;54;21096;-73
2022/05/27 03:58:46;;;;;;;15.95;3.20;;;14.50;72.00;;;;;;2276021;59;21657;-73
2022/05/27 04:01:13;;;;;;;16.55;2.83;;;14.50;72.10;;;;;;2276821;59;21061;-73
2022/05/27 04:03:41;;;;;;;11.82;2.60;;;14.40;71.70;;;;;;2276576;59;21064;-73
2022/05/27 04:06:08;;;;;;;13.73;3.22;;;14.40;71.80;;;;;;2508287;55;21120;-73
2022/05/27 04:08:35;;;;;;;17.23;3.65;;;14.30;71.90;;;;;;2276596;59;21136;-72
2022/05/27 04:11:03;;;;;;;13.48;2.90;;;14.30;72.00;;;;;;2276756;59;21694;-73
2022/05/27 04:13:30;;;;;;;13.27;2.58;;;14.30;72.20;;;;;;2276523;59;21075;-72
2022/05/27 04:15:57;;;;;;;11.77;3.03;;;14.30;71.80;;;;;;2508074;55;21594;-73
2022/05/27 04:18:24;;;;;;;11.18;2.83;;;14.20;71.70;;;;;;2276570;59;21582;-73
2022/05/27 04:20:52;;;;;;;12.18;2.85;;;14.20;71.70;;;;;;2276545;59;21064;-73
2022/05/27 04:23:19;;;;;;;12.32;2.42;;;14.30;72.00;;;;;;2276585;59;21125;-72
2022/05/27 04:25:48;;;;;;;13.55;2.62;;;14.30;71.90;;;;;;2276422;59;21053;-72
2022/05/27 04:28:15;;;;;;;15.52;3.40;;;14.30;71.80;;;;;;2276605;59;21056;-73
2022/05/27 04:30:45;;;;;;;11.48;3.33;;;14.30;72.00;;;;;;2276709;59;21135;-73
2022/05/27 04:33:12;;;;;;;12.45;2.80;;;14.20;71.90;;;;;;2276432;59;21492;-72
2022/05/27 04:35:40;;;;;;;14.80;3.35;;;14.20;71.80;;;;;;2276503;59;21144;-73
2022/05/27 04:38:08;;;;;;;20.40;2.70;;;14.20;71.60;;;;;;2276644;59;21626;-73
2022/05/27 04:40:36;;;;;;;15.00;3.10;;;14.20;71.80;;;;;;2276907;59;21132;-73
2022/05/27 04:43:03;;;;;;;10.18;2.42;;;14.10;71.60;;;;;;2276944;59;21083;-72
2022/05/27 04:45:31;;;;;;;10.82;2.10;;;14.10;71.60;;;;;;2276334;59;21547;-72
2022/05/27 04:47:58;;;;;;;13.50;3.08;;;14.10;71.40;;;;;;2276828;59;21064;-72
2022/05/27 04:50:27;;;;;;;15.00;2.47;;;14.10;71.20;;;;;;2277001;59;21319;-72
2022/05/27 04:52:55;;;;;;;10.93;2.65;;;14.10;71.10;;;;;;2277099;59;21061;-73
2022/05/27 04:55:22;;;;;;;10.27;2.50;;;14.20;71.20;;;;;;2276304;59;21052;-72
2022/05/27 04:57:52;;;;;;;16.40;2.62;;;14.10;71.00;;;;;;2276758;59;21136;-73
2022/05/27 05:00:22;;;;;;;11.20;3.08;;;14.10;70.30;;;;;;2276809;59;21064;-72
2022/05/27 05:02:50;;;;;;;10.52;2.20;;;14.10;70.00;;;;;;2276979;59;21049;-72
2022/05/27 05:05:20;;;;;;;10.00;2.85;;;14.10;70.10;;;;;;2276661;59;21068;-72
2022/05/27 05:07:50;;;;;;;9.95;2.30;;;14.00;70.30;;;;;;2276945;59;21068;-72
2022/05/27 05:10:20;;;;;;;14.85;3.42;;;14.00;70.60;;;;;;2508733;55;21104;-75
2022/05/27 05:12:49;;;;;;;11.85;2.92;;;14.00;70.30;;;;;;2276788;59;21151;-74
2022/05/27 05:15:17;;;;;;;10.68;2.83;;;14.00;70.40;;;;;;2276762;59;21223;-74
2022/05/27 05:17:45;;;;;;;9.75;3.03;;;14.00;70.10;;;;;;2508788;54;21120;-75
2022/05/27 05:20:16;;;;;;;12.13;3.17;;;14.00;69.70;;;;;;2276963;59;21044;-75
2022/05/27 05:22:43;;;;;;;12.43;2.53;;;14.00;69.40;;;;;;2277019;59;21053;-75
2022/05/27 05:25:11;;;;;;;12.02;2.65;;;13.90;68.90;;;;;;2276614;59;21192;-74
2022/05/27 05:27:39;;;;;;;8.18;2.50;;;13.90;68.40;;;;;;2276521;59;21064;-75
2022/05/27 05:30:12;;;;;;;11.10;2.15;;;13.90;68.40;;;;;;2276834;59;21121;-75
2022/05/27 05:32:39;;;;;;;9.03;2.07;;;13.90;68.40;;;;;;2277392;59;21048;-75
2022/05/27 05:35:09;;;;;;;8.70;2.47;;;14.00;68.50;;;;;;2276788;59;21056;-75
2022/05/27 05:37:37;;;;;;;9.57;2.47;;;13.90;68.30;;;;;;2276675;59;21128;-75
2022/05/27 05:40:07;;;;;;;11.43;2.42;;;13.90;67.80;;;;;;2276712;59;21053;-75
2022/05/27 05:42:34;;;;;;;13.30;2.75;;;13.90;67.60;;;;;;2276972;59;21045;-75
2022/05/27 05:45:01;;;;;;;16.85;3.15;;;13.90;67.20;;;;;;2276658;59;21045;-74
2022/05/27 05:47:28;;;;;;;6.72;2.62;;;13.90;67.00;;;;;;2276663;59;21053;-75
2022/05/27 05:49:55;;;;;;;8.63;2.03;;;14.00;66.80;;;;;;2276756;59;21220;-75
2022/05/27 05:52:23;;;;;;;9.30;2.25;;;13.90;66.00;;;;;;2276882;59;21097;-75
2022/05/27 05:54:50;;;;;;;10.00;2.15;;;13.90;66.30;;;;;;2276591;59;21144;-75
2022/05/27 05:57:17;;;;;;;6.43;1.70;;;13.90;66.10;;;;;;2276618;59;21132;-75
2022/05/27 05:59:45;;;;;;;9.18;2.10;;;13.90;65.90;;;;;;2276731;59;21064;-75
2022/05/27 06:02:12;;;;;;;6.93;1.92;;;13.90;65.80;;;;;;2277014;59;21136;-74
2022/05/27 06:04:39;;;;;;;10.25;2.67;;;14.00;65.80;;;;;;2276691;59;21622;-74
2022/05/27 06:07:06;;;;;;;12.27;2.17;;;14.00;64.80;;;;;;2276296;59;21112;-74
2022/05/27 06:09:34;;;;;;;14.30;2.40;;;14.00;64.80;;;;;;2276830;59;21025;-75
2022/05/27 06:12:03;;;;;;;14.95;2.25;;;14.00;64.20;;;;;;2276796;59;21070;-74
2022/05/27 06:14:30;;;;;;;11.27;2.58;;;14.00;64.30;;;;;;2276787;59;21052;-75
2022/05/27 06:16:57;;;;;;;10.48;2.33;;;14.00;63.20;;;;;;2276272;59;21570;-75
2022/05/27 06:19:25;;;;;;;10.70;2.42;;;14.00;63.50;;;;;;2276756;59;21113;-75
2022/05/27 06:21:52;;;;;;;9.98;2.55;;;14.10;63.20;;;;;;2276737;59;22275;-75
2022/05/27 06:24:19;;;;;;;8.68;2.47;;;14.00;62.70;;;;;;2508892;55;21044;-75
2022/05/27 06:26:46;;;;;;;9.13;2.08;;;14.00;62.70;;;;;;2276609;59;21558;-75
2022/05/27 06:34:45;;;;;;;10.07;2.60;;;14.00;63.10;;;;;;2276871;59;21041;-74
2022/05/27 06:37:16;;;;;;;11.35;1.90;;;14.00;63.00;;;;;;2276083;59;21129;-73
2022/05/27 06:39:43;;;;;;;11.63;2.05;;;14.00;62.70;;;;;;2508751;54;21053;-74
2022/05/27 06:42:12;;;;;;;12.18;2.40;;;14.10;62.20;;;;;;2276759;59;21101;-74
2022/05/27 06:44:40;;;;;;;11.45;2.20;;;14.20;61.70;;;;;;2508540;54;21105;-74
2022/05/27 06:47:09;;;;;;;12.82;2.08;;;14.20;60.90;;;;;;2276552;59;21124;-74
2022/05/27 06:49:37;;;;;;;9.73;2.25;;;14.20;60.50;;;;;;2277080;59;21041;-73
2022/05/27 06:52:07;;;;;;;10.50;2.35;;;14.20;60.50;;;;;;2276922;59;21080;-74
2022/05/27 06:54:34;;;;;;;9.20;2.42;;;14.20;60.20;;;;;;2276729;59;21057;-74
2022/05/27 06:57:03;;;;;;;11.55;2.08;;;14.30;60.30;;;;;;2276460;59;21053;-74
2022/05/27 06:59:32;;;;;;;8.07;2.20;;;14.40;59.80;;;;;;2276974;59;21060;-74
2022/05/27 07:01:59;;;;;;;10.75;2.53;;;14.40;58.90;;;;;;2276791;59;21128;-73
2022/05/27 07:04:26;;;;;;;7.72;2.00;;;14.40;58.60;;;;;;2276847;59;21140;-73
2022/05/27 07:06:54;;;;;;;8.95;2.12;;;14.50;59.00;;;;;;2276310;59;21105;-74
2022/05/27 07:09:23;;;;;;;10.32;2.65;;;14.50;58.60;;;;;;2276577;59;21116;-74
2022/05/27 07:11:53;;;;;;;10.45;2.55;;;14.60;58.90;;;;;;2276793;59;21049;-74
2022/05/27 07:14:20;;;;;;;9.10;2.17;;;14.70;59.30;;;;;;2276741;59;21128;-73
2022/05/27 07:16:48;;;;;;;10.68;2.58;;;14.80;59.50;;;;;;2276500;59;21064;-74
2022/05/27 07:19:19;;;;;;;6.00;1.98;;;14.80;58.80;;;;;;2276716;59;21132;-74
2022/05/27 07:21:48;;;;;;;13.88;3.15;;;14.90;58.30;;;;;;2276858;59;21060;-73
2022/05/27 07:24:18;;;;;;;9.77;3.03;;;14.90;58.20;;;;;;2276856;59;21442;-73
2022/05/27 07:26:46;;;;;;;8.70;2.25;;;15.00;59.10;;;;;;2276525;59;21140;-74
2022/05/27 07:29:14;;;;;;;11.57;2.10;;;15.10;58.40;;;;;;2276879;59;21136;-73
2022/05/27 07:31:43;;;;;;;15.90;2.40;;;15.10;57.40;;;;;;2276869;59;21101;-73
2022/05/27 07:34:11;;;;;;;14.40;2.12;;;15.10;56.60;;;;;;2276654;59;21120;-74
2022/05/27 07:36:39;;;;;;;11.32;2.80;;;15.20;55.80;;;;;;2276240;59;21068;-73
2022/05/27 07:39:06;;;;;;;7.95;1.95;;;15.10;55.40;;;;;;2276740;59;21108;-74
2022/05/27 07:41:33;;;;;;;11.68;2.67;;;15.20;55.70;;;;;;2276981;59;21055;-74
2022/05/27 07:44:01;;;;;;;8.75;2.00;;;15.20;55.50;;;;;;2276720;59;21044;-73
2022/05/27 07:46:30;;;;;;;12.57;2.60;;;15.20;55.10;;;;;;2276427;59;21052;-74
2022/05/27 07:48:57;;;;;;;9.90;2.15;;;15.20;54.90;;;;;;2276716;59;21049;-74
2022/05/27 07:51:25;;;;;;;7.32;1.87;;;15.20;55.30;;;;;;2276603;59;21076;-73
2022/05/27 07:53:52;;;;;;;7.82;1.80;;;15.30;55.50;;;;;;2276948;59;21109;-73
2022/05/27 07:56:19;;;;;;;12.25;2.28;;;15.30;54.70;;;;;;2276467;59;21068;-73
2022/05/27 07:58:47;;;;;;;12.05;2.62;;;15.30;53.90;;;;;;2276654;59;21065;-73
2022/05/27 08:01:15;;;;;;;12.00;2.60;;;15.30;54.00;;;;;;2277089;59;21053;-73
2022/05/27 08:03:42;;;;;;;10.13;2.58;;;15.40;54.80;;;;;;2276703;59;21144;-73
2022/05/27 08:06:10;;;;;;;12.02;1.98;;;15.40;54.10;;;;;;2276447;59;21550;-73
2022/05/27 08:08:37;;;;;;;9.57;3.28;;;15.40;53.50;;;;;;2276770;59;21055;-73
2022/05/27 08:11:06;;;;;;;10.30;2.10;;;15.40;53.20;;;;;;2276639;59;21120;-74
2022/05/27 08:13:33;;;;;;;7.80;2.00;;;15.40;53.80;;;;;;2277060;59;21049;-73
2022/05/27 08:16:01;;;;;;;7.72;2.42;;;15.40;54.40;;;;;;2276440;59;21323;-74
2022/05/27 08:18:28;;;;;;;5.43;1.83;;;15.50;53.80;;;;;;2276718;59;21056;-73
2022/05/27 08:20:55;;;;;;;10.35;2.03;;;15.50;52.50;;;;;;2276774;59;21132;-73
2022/05/27 08:23:24;;;;;;;9.52;2.22;;;15.60;53.10;;;;;;2276774;59;21554;-74
2022/05/27 08:25:55;;;;;;;10.52;2.90;;;15.60;53.10;;;;;;2276487;59;21052;-73
2022/05/27 08:28:24;;;;;;;7.15;2.17;;;15.70;53.10;;;;;;2276884;59;21069;-74
2022/05/27 08:30:55;;;;;;;8.55;2.35;;;15.80;51.50;;;;;;2276884;59;21048;-74
2022/05/27 08:33:24;;;;;;;5.18;1.95;;;15.70;54.30;;;;;;2276947;59;21068;-73
2022/05/27 08:38:39;;;;;;;5.70;1.85;;;15.50;55.60;;;;;;2276790;59;21136;-74
2022/05/27 08:41:38;;;;;;;3.65;1.40;;;15.40;55.70;;;;;;2276876;59;21203;-74
2022/05/27 08:44:27;;;;;;;5.12;1.62;;;15.30;56.10;;;;;;2276802;59;21117;-73
2022/05/27 08:47:06;;;;;;;4.55;1.50;;;15.20;56.70;;;;;;2276572;59;21041;-73
2022/05/27 08:49:37;;;;;;;6.57;1.80;;;15.20;56.80;;;;;;2276935;59;21124;-74
2022/05/27 08:52:10;;;;;;;5.43;1.80;;;15.10;57.10;;;;;;2276912;59;21104;-73
2022/05/27 08:54:42;;;;;;;9.27;2.17;;;15.10;56.80;;;;;;2276889;59;21677;-74
2022/05/27 09:00:04;;;;;;;8.60;1.87;;;15.00;57.80;;;;;;2276655;59;21551;-73
2022/05/27 09:02:36;;;;;;;9.02;2.20;;;15.00;58.30;;;;;;2277267;59;21128;-74
2022/05/27 09:05:15;;;;;;;8.15;2.10;;;15.00;58.40;;;;;;2276880;59;21064;-73
2022/05/27 09:07:48;;;;;;;15.50;2.28;;;15.00;58.20;;;;;;2277025;58;21052;-73
2022/05/27 09:10:19;;;;;;;7.43;2.35;;;15.00;57.30;;;;;;2276703;59;21064;-74
2022/05/27 09:12:57;;;;;;;12.77;2.33;;;15.10;58.00;;;;;;2276928;59;21076;-73
2022/05/27 09:15:33;;;;;;;6.28;2.40;;;15.10;58.00;;;;;;2276243;59;21081;-74
2022/05/27 09:18:12;;;;;;;9.80;1.90;;;15.20;58.30;;;;;;2276898;59;21064;-74
2022/05/27 09:20:50;;;;;;;7.28;1.83;;;15.30;58.80;;;;;;2276657;59;21123;-73
2022/05/27 09:23:50;;;;;;;7.82;2.15;;;15.50;58.60;;;;;;2276947;59;21658;-74
2022/05/27 09:26:22;;;;;;;6.20;2.15;;;15.60;55.80;;;;;;2276560;59;21041;-74
2022/05/27 09:28:58;;;;;;;10.50;2.37;;;15.70;53.30;;;;;;2276928;59;21048;-73
2022/05/27 09:31:35;;;;;;;6.15;1.92;;;15.70;52.30;;;;;;2276897;59;21037;-74
2022/05/27 09:34:02;;;;;;;10.10;2.28;;;15.80;52.80;;;;;;2277168;59;21311;-74
2022/05/27 09:36:35;;;;;;;9.52;1.90;;;15.90;52.10;;;;;;2276524;59;21048;-74
2022/05/27 09:39:05;;;;;;;6.03;2.37;;;15.90;50.40;;;;;;2277072;59;21072;-74
2022/05/27 09:41:44;;;;;;;6.90;2.37;;;16.00;49.60;;;;;;2276565;59;21105;-74
2022/05/27 09:44:20;;;;;;;7.47;1.70;;;16.00;48.90;;;;;;2276893;59;21068;-74
2022/05/27 09:46:47;;;;;;;12.65;2.20;;;16.00;49.40;;;;;;2276514;59;21057;-74
2022/05/27 09:49:14;;;;;;;9.93;2.70;;;16.10;47.80;;;;;;2276845;59;21563;-74
2022/05/27 09:51:42;;;;;;;6.62;2.42;;;16.10;47.80;;;;;;2276637;59;21119;-74
2022/05/27 09:54:21;;;;;;;8.85;2.10;;;16.20;49.30;;;;;;2276942;59;21061;-73
2022/05/27 09:56:59;;;;;;;9.88;2.40;;;16.30;49.20;;;;;;2295746;55;21065;-74
2022/05/27 09:59:34;;;;;;;11.05;2.30;;;16.30;49.70;;;;;;2241875;60;21087;-74
2022/05/27 10:02:20;;;;;;;10.02;3.12;;;16.40;48.40;;;;;;2242005;60;21115;-74
2022/05/27 10:04:57;;;;;;;8.80;2.20;;;16.40;48.70;;;;;;2241911;60;21345;-73
2022/05/27 10:07:31;;;;;;;9.25;2.33;;;16.50;50.20;;;;;;2241575;60;21147;-74
2022/05/27 10:10:16;;;;;;;9.98;2.60;;;16.50;50.90;;;;;;2241743;60;21127;-74
2022/05/27 10:12:44;;;;;;;6.47;1.75;;;16.40;53.70;;;;;;2241805;60;21131;-74
2022/05/27 10:15:31;;;;;;;8.95;2.05;;;16.30;53.90;;;;;;2241878;60;21084;-74
2022/05/27 10:18:15;;;;;;;8.93;2.25;;;16.20;54.40;;;;;;2241643;60;21096;-74
2022/05/27 10:20:47;;;;;;;9.05;2.35;;;16.10;54.00;;;;;;2241839;60;21063;-74
2022/05/27 10:23:24;;;;;;;13.90;2.35;;;16.10;54.60;;;;;;2347671;56;21047;-74
2022/05/27 10:25:52;;;;;;;17.60;3.10;;;16.00;54.30;;;;;;2258187;56;21091;-74
2022/05/27 10:28:27;;;;;;;10.27;2.30;;;16.00;54.40;;;;;;2242062;60;21118;-74
2022/05/27 10:30:58;;;;;;;7.60;2.10;;;15.90;54.80;;;;;;2241921;60;21194;-74
2022/05/27 10:33:38;;;;;;;14.50;2.53;;;16.00;55.60;;;;;;2241959;60;21126;-74
2022/05/27 10:36:38;;;;;;;10.55;2.58;;;16.10;55.30;;;;;;2240997;60;21148;-74
2022/05/27 10:39:08;;;;;;;10.18;2.60;;;16.20;55.30;;;;;;2241902;60;21155;-74
2022/05/27 10:41:54;;;;;;;9.35;2.05;;;16.20;54.60;;;;;;2241649;60;21075;-74
2022/05/27 10:44:31;;;;;;;11.02;2.58;;;16.20;54.10;;;;;;2304232;56;21064;-74
2022/05/27 10:46:59;;;;;;;10.15;2.40;;;16.20;52.50;;;;;;2279779;56;21095;-74
2022/05/27 10:49:37;;;;;;;7.53;1.98;;;16.20;53.40;;;;;;2372486;56;21159;-75
2022/05/27 10:52:20;;;;;;;15.13;2.15;;;16.30;53.30;;;;;;2241653;60;21131;-75
2022/05/27 10:55:09;;;;;;;9.18;2.30;;;16.40;53.30;;;;;;2242167;60;21143;-74
2022/05/27 11:04:03;;;;;;;13.13;2.42;;;16.60;52.30;;;;;;2241700;56;21104;-74
2022/05/27 11:06:53;;;;;;;13.27;2.78;;;16.60;54.10;;;;;;2241479;60;21139;-74
2022/05/27 11:09:38;;;;;;;9.35;2.00;;;16.50;54.40;;;;;;2241955;60;21135;-74
2022/05/27 11:12:16;;;;;;;8.25;2.03;;;16.40;55.10;;;;;;2281723;56;21084;-74
2022/05/27 11:15:13;;;;;;;7.12;1.65;;;16.40;55.40;;;;;;2242021;60;21063;-76
2022/05/27 11:17:52;;;;;;;9.02;2.28;;;16.40;55.20;;;;;;2241498;60;21059;-74
2022/05/27 11:20:46;;;;;;;10.07;1.83;;;16.40;54.40;;;;;;2241734;60;21828;-74
2022/05/27 11:23:39;;;;;;;11.65;2.22;;;16.50;54.10;;;;;;2260575;56;21071;-74
2022/05/27 11:26:15;;;;;;;8.75;1.90;;;16.60;53.80;;;;;;2256662;56;21071;-74
2022/05/27 11:29:30;;;;;;;6.75;1.92;;;16.60;53.70;;;;;;2248810;56;21119;-74
2022/05/27 11:32:06;;;;;;;13.32;2.47;;;16.70;53.80;;;;;;2226511;60;21080;-74
2022/05/27 11:34:40;;;;;;;15.82;2.65;;;16.90;54.30;;;;;;2242131;60;21084;-74
2022/05/27 11:37:38;;;;;;;7.75;2.00;;;17.00;53.40;;;;;;2241646;60;21086;-74
2022/05/27 11:40:29;;;;;;;5.93;1.75;;;17.00;55.00;;;;;;2241955;60;21126;-75
2022/05/27 11:43:25;;;;;;;8.15;2.17;;;17.00;55.50;;;;;;2241639;60;21119;-75
2022/05/27 11:46:07;;;;;;;8.07;2.50;;;17.00;55.50;;;;;;2241562;60;21076;-75
2022/05/27 11:48:46;;;;;;;8.65;2.03;;;17.00;55.30;;;;;;2241611;60;21067;-75
2022/05/27 11:54:29;;;;;;;8.15;1.42;;;17.00;55.70;;;;;;2327831;57;22574;-74
2022/05/27 11:57:32;;;;;;;9.63;1.80;;;17.10;54.90;;;;;;2329429;54;21119;-74
2022/05/27 12:00:03;;;;;;;13.75;2.00;;;17.00;53.60;;;;;;2293697;58;21165;-74
2022/05/27 12:02:42;;;;;;;7.28;2.10;;;17.10;54.20;;;;;;2293126;58;21066;-75
2022/05/27 12:05:14;;;;;;;10.35;2.95;;;17.20;54.90;;;;;;2293442;58;21063;-75
2022/05/27 12:07:47;;;;;;;14.65;2.60;;;17.20;53.90;;;;;;2293059;58;21074;-76
2022/05/27 12:10:23;;;;;;;20.17;3.22;;;17.20;53.40;;;;;;2293459;58;21114;-76
2022/05/27 12:12:57;;;;;;;12.43;3.00;;;17.10;54.10;;;;;;2293063;58;21062;-75
2022/05/27 12:15:29;;;;;;;14.05;2.80;;;17.00;55.20;;;;;;2293098;58;21054;-75
2022/05/27 12:17:58;;;;;;;17.00;2.97;;;17.00;56.80;;;;;;2438653;55;21102;-75
2022/05/27 12:20:29;;;;;;;11.12;2.67;;;17.10;57.20;;;;;;2293300;58;21071;-76
2022/05/27 12:23:00;;;;;;;18.30;3.22;;;17.10;56.20;;;;;;2293270;58;21232;-75
2022/05/27 12:25:31;;;;;;;11.05;2.40;;;17.00;56.40;;;;;;2467591;55;21058;-76
2022/05/27 12:28:02;;;;;;;18.00;3.65;;;17.00;58.60;;;;;;2293419;58;21098;-74
2022/05/27 12:30:32;;;;;;;12.80;3.20;;;16.90;58.30;;;;;;2293334;58;21063;-75
2022/05/27 12:33:01;;;;;;;15.40;3.22;;;16.90;59.00;;;;;;2293096;58;21114;-75
2022/05/27 12:35:50;;;;;;;12.10;2.42;;;17.00;59.40;;;;;;2292707;58;21110;-75
2022/05/27 12:38:24;;;;;;;7.97;2.20;;;17.10;59.40;;;;;;2293213;58;21157;-74
2022/05/27 12:40:54;;;;;;;10.70;2.30;;;17.10;58.20;;;;;;2293222;58;21057;-75
2022/05/27 12:43:25;;;;;;;10.90;2.17;;;17.10;56.20;;;;;;2293095;58;21130;-75
2022/05/27 12:45:55;;;;;;;16.00;2.35;;;17.10;53.40;;;;;;2292928;58;21078;-75
2022/05/27 12:48:33;;;;;;;4.95;1.48;;;17.10;54.10;;;;;;2292915;58;21099;-75
2022/05/27 12:51:03;;;;;;;10.00;1.98;;;17.00;52.80;;;;;;2293376;58;21054;-75
2022/05/27 12:53:43;;;;;;;11.80;2.37;;;17.00;52.30;;;;;;2283384;58;21067;-75
2022/05/27 13:03:05;;;;;;;9.35;2.08;;;16.90;50.50;;;;;;2275686;55;21003;-74
2022/05/27 13:06:08;;;;;;;8.95;1.90;;;16.90;51.10;;;;;;2274279;59;21055;-75
2022/05/27 13:08:46;;;;;;;8.93;2.17;;;16.90;52.20;;;;;;2274479;59;21059;-74
2022/05/27 13:11:16;;;;;;;16.95;3.00;;;16.80;51.80;;;;;;2274702;59;21135;-75
2022/05/27 13:13:44;;;;;;;15.00;2.37;;;16.80;51.90;;;;;;2274461;59;21055;-76
2022/05/27 13:16:24;;;;;;;13.57;2.25;;;16.90;51.40;;;;;;2274266;59;21118;-76
2022/05/27 13:18:59;;;;;;;10.95;1.90;;;16.90;51.10;;;;;;2322119;55;21059;-76
2022/05/27 13:21:40;;;;;;;10.50;2.15;;;16.90;49.90;;;;;;2389658;55;21525;-76
2022/05/27 13:24:26;;;;;;;11.05;2.10;;;16.80;49.80;;;;;;2392020;54;21064;-76
2022/05/27 13:26:59;;;;;;;10.43;1.85;;;16.80;50.30;;;;;;2274218;59;21047;-75
2022/05/27 13:29:33;;;;;;;12.85;2.58;;;16.70;51.40;;;;;;2274790;59;21094;-76
2022/05/27 13:32:06;;;;;;;13.10;2.95;;;16.70;51.60;;;;;;2275058;59;21122;-75
2022/05/27 13:34:42;;;;;;;12.20;2.50;;;16.80;52.20;;;;;;2274475;59;21102;-75
2022/05/27 13:37:24;;;;;;;10.40;1.83;;;17.00;53.60;;;;;;2274268;59;21094;-76
2022/05/27 13:39:54;;;;;;;9.77;2.35;;;17.10;52.80;;;;;;2274547;59;21044;-74
2022/05/27 13:42:29;;;;;;;6.35;1.77;;;17.10;52.10;;;;;;2274645;59;21537;-75